| time (UTC) | temp C | wind direction | speed KPH | gust KPH | rain 1hr cm | rain 24hr cm | rain mn cm | humidity % | barometer mb |
| 20260906044127 | 10 | 340 | 27.4 | 35.4 | 0.00 | 0.00 | 0.00 | 85 | 1006.8 |
| 20260906042454 | 10 | 342 | 27.4 | 38.6 | 0.00 | 0.00 | 0.00 | 86 | 1006.0 |
| 20260906040456 | 10 | 340 | 27.4 | 43.5 | 0.00 | 0.00 | 0.00 | 87 | 1006.2 |
| 20260906034126 | 10 | 340 | 30.6 | 45.1 | 0.00 | 0.00 | 0.00 | 86 | 1005.8 |
| 20260906032126 | 10 | 336 | 27.4 | 37.0 | 0.00 | 0.00 | 0.00 | 86 | 1005.4 |
| 20260906030457 | 10 | 339 | 29.0 | 41.8 | 0.00 | 0.00 | 0.00 | 86 | 1004.9 |
| 20260906024456 | 10 | 337 | 29.0 | 41.8 | 0.00 | 0.00 | 0.00 | 85 | 1005.1 |
| 20260906022457 | 10 | 339 | 29.0 | 41.8 | 0.00 | 0.00 | 0.00 | 86 | 1004.9 |
| 20260906020457 | 10 | 340 | 25.7 | 38.6 | 0.00 | 0.00 | 0.00 | 86 | 1004.7 |
| 20260906014458 | 10 | 339 | 33.8 | 45.1 | 0.00 | 0.00 | 0.00 | 83 | 1004.4 |
| 20260906012455 | 11 | 339 | 27.4 | 37.0 | 0.00 | 0.00 | 0.00 | 84 | 1004.2 |
| 20260906010457 | 11 | 343 | 32.2 | 43.5 | 0.00 | 0.00 | 0.00 | 83 | 1004.0 |
| 20260906004457 | 11 | 340 | 37.0 | 49.9 | 0.00 | 0.00 | 0.00 | 83 | 1003.7 |
| 20260906002456 | 11 | 335 | 30.6 | 43.5 | 0.00 | 0.00 | 0.00 | 83 | 1003.2 |
| 20260906000455 | 11 | 337 | 32.2 | 40.2 | 0.00 | 0.00 | 0.00 | 84 | 1003.1 |
| 20260905234455 | 12 | 335 | 24.1 | 33.8 | 0.00 | 0.00 | 0.00 | 85 | 1002.8 |
| 20260905232455 | 12 | 341 | 25.7 | 37.0 | 0.00 | 0.00 | 0.00 | 83 | 1002.5 |
| 20260905230455 | 13 | 348 | 27.4 | 37.0 | 0.00 | 0.00 | 0.00 | 79 | 1002.2 |
| 20260905224455 | 13 | 358 | 27.4 | 41.8 | 0.00 | 0.00 | 0.00 | 77 | 1002.0 |
| 20260905222455 | 13 | 350 | 20.9 | 30.6 | 0.00 | 0.00 | 0.00 | 82 | 1001.7 |
| 20260905220456 | 13 | 339 | 20.9 | 29.0 | 0.00 | 0.00 | 0.00 | 82 | 1001.6 |
| 20260905214455 | 14 | 332 | 24.1 | 32.2 | 0.00 | 0.00 | 0.00 | 82 | 1001.5 |
| 20260905212456 | 14 | 326 | 24.1 | 32.2 | 0.00 | 0.00 | 0.00 | 83 | 1001.2 |
| 20260905210125 | 15 | 322 | 24.1 | 30.6 | 0.00 | 0.00 | 0.00 | 82 | 1001.0 |
| 20260905204454 | 15 | 315 | 22.5 | 29.0 | 0.00 | 0.00 | 0.00 | 80 | 1000.8 |
| 20260905202454 | 15 | 314 | 24.1 | 29.0 | 0.00 | 0.00 | 0.00 | 79 | 1000.6 |
| 20260905200456 | 15 | 312 | 25.7 | 30.6 | 0.00 | 0.00 | 0.00 | 77 | 1000.5 |
| 20260905194125 | 15 | 307 | 24.1 | 29.0 | 0.00 | 0.00 | 0.00 | 79 | 1000.3 |
| 20260905192125 | 15 | 305 | 24.1 | 29.0 | 0.00 | 0.00 | 0.00 | 80 | 1000.2 |
| 20260905190454 | 15 | 308 | 24.1 | 29.0 | 0.00 | 0.00 | 0.00 | 78 | 1000.2 |
| 20260905184456 | 15 | 308 | 24.1 | 30.6 | 0.00 | 0.00 | 0.00 | 78 | 1000.0 |
| 20260905182454 | 15 | 306 | 25.7 | 30.6 | 0.00 | 0.00 | 0.00 | 78 | 1000.0 |
| 20260905180452 | 15 | 305 | 27.4 | 33.8 | 0.00 | 0.00 | 0.00 | 77 | 999.9 |
| 20260905174452 | 15 | 305 | 29.0 | 35.4 | 0.00 | 0.00 | 0.00 | 75 | 999.6 |
| 20260905172453 | 15 | 302 | 30.6 | 35.4 | 0.00 | 0.00 | 0.00 | 76 | 999.4 |
| 20260905170454 | 15 | 301 | 35.4 | 40.2 | 0.00 | 0.00 | 0.00 | 76 | 999.2 |
| 20260905164455 | 16 | 305 | 33.8 | 38.6 | 0.00 | 0.00 | 0.00 | 69 | 998.6 |
| 20260905162126 | 16 | 306 | 30.6 | 38.6 | 0.00 | 0.00 | 0.00 | 70 | 998.7 |
| 20260905160124 | 16 | 305 | 35.4 | 41.8 | 0.00 | 0.00 | 0.00 | 68 | 998.5 |
| 20260905154453 | 16 | 299 | 37.0 | 40.2 | 0.00 | 0.00 | 0.00 | 60 | 998.3 |
| 20260905152455 | 17 | 297 | 35.4 | 40.2 | 0.00 | 0.00 | 0.00 | 60 | 998.2 |
| 20260905150453 | 17 | 294 | 33.8 | 37.0 | 0.00 | 0.00 | 0.00 | 61 | 998.0 |
| 20260905144124 | 17 | 289 | 35.4 | 40.2 | 0.00 | 0.00 | 0.00 | 62 | 997.9 |
| 20260905142454 | 17 | 288 | 33.8 | 38.6 | 0.00 | 0.00 | 0.00 | 61 | 997.7 |
| 20260905140454 | 17 | 288 | 29.0 | 35.4 | 0.00 | 0.00 | 0.00 | 61 | 997.6 |
| 20260905134453 | 17 | 269 | 32.2 | 35.4 | 0.00 | 0.00 | 0.00 | 65 | 997.5 |
| 20260905132452 | 17 | 268 | 30.6 | 35.4 | 0.00 | 0.00 | 0.00 | 65 | 997.5 |
| 20260905130458 | 17 | 269 | 25.7 | 27.4 | 0.00 | 0.00 | 0.00 | 65 | 997.3 |
| 20260905124453 | 17 | 270 | 27.4 | 29.0 | 0.00 | 0.00 | 0.00 | 63 | 997.3 |
| 20260905122452 | 17 | 265 | 25.7 | 29.0 | 0.00 | 0.00 | 0.00 | 66 | 997.2 |
| 20260905120453 | 17 | 266 | 25.7 | 29.0 | 0.00 | 0.00 | 0.00 | 65 | 997.0 |
| 20260905114453 | 16 | 269 | 24.1 | 27.4 | 0.00 | 0.00 | 0.00 | 66 | 997.0 |
| 20260905112455 | 17 | 261 | 19.3 | 24.1 | 0.00 | 0.00 | 0.00 | 63 | 996.9 |
| 20260905110453 | 16 | 273 | 19.3 | 22.5 | 0.00 | 0.00 | 0.00 | 63 | 996.7 |
| 20260905104454 | 16 | 281 | 16.1 | 19.3 | 0.00 | 0.00 | 0.00 | 63 | 996.5 |
| 20260905102454 | 16 | 285 | 14.5 | 20.9 | 0.00 | 0.00 | 0.00 | 63 | 996.3 |
| 20260905100453 | 16 | 284 | 16.1 | 19.3 | 0.00 | 0.00 | 0.00 | 66 | 996.2 |
| 20260905094452 | 16 | 289 | 16.1 | 19.3 | 0.00 | 0.00 | 0.00 | 65 | 996.0 |
| 20260905092453 | 16 | 297 | 16.1 | 19.3 | 0.00 | 0.00 | 0.00 | 70 | 995.9 |
| 20260905084454 | 16 | 304 | 16.1 | 19.3 | 0.00 | 0.00 | 0.00 | 67 | 995.7 |
| 20260905082455 | 15 | 301 | 14.5 | 17.7 | 0.00 | 0.00 | 0.00 | 70 | 995.4 |
| 20260905080451 | 16 | 308 | 12.9 | 17.7 | 0.00 | 0.00 | 0.00 | 73 | 995.3 |
| 20260905074123 | 15 | 335 | 12.9 | 16.1 | 0.00 | 0.00 | 0.00 | 76 | 995.2 |
| 20260905072451 | 14 | 330 | 11.3 | 16.1 | 0.00 | 0.00 | 0.00 | 75 | 995.0 |
| 20260905070454 | 14 | 321 | 12.9 | 16.1 | 0.00 | 0.00 | 0.00 | 78 | 994.9 |
| 20260905064122 | 14 | 334 | 9.7 | 14.5 | 0.00 | 0.00 | 0.00 | 79 | 994.8 |
| 20260905062451 | 13 | 333 | 11.3 | 14.5 | 0.00 | 0.00 | 0.00 | 81 | 994.7 |
| 20260905060452 | 13 | 316 | 6.4 | 9.7 | 0.00 | 0.00 | 0.00 | 83 | 994.6 |
| 20260905054451 | 12 | 345 | 4.8 | 6.4 | 0.00 | 0.00 | 0.00 | 87 | 994.6 |
| 20260905052451 | 12 | 7 | 6.4 | 8.0 | 0.00 | 0.00 | 0.00 | 87 | 994.6 |